Time;durP1;ratioP1;P1;durP2;ratioP2;P2;SDS_P1;SDS_P2;PMS_P1;PMS_P2;Temp;Humidity;BMP_temperature;BMP_pressure;BME280_temperature;BME280_humidity;BME280_pressure;Samples;Min_cycle;Max_cycle;Signal;HPM_P1;HPM_P2
2021/05/23 00:00:13;;;;;;;17.77;12.45;;;22.60;56.60;;;;;;4889265;29;20098;-85
2021/05/23 00:02:39;;;;;;;15.27;12.60;;;22.50;56.80;;;;;;4888073;29;20170;-86
2021/05/23 00:05:07;;;;;;;15.38;12.90;;;22.50;56.80;;;;;;4872274;29;20040;-87
2021/05/23 00:07:37;;;;;;;14.43;12.60;;;22.40;56.90;;;;;;4872205;29;20046;-86
2021/05/23 00:10:05;;;;;;;18.15;13.27;;;22.30;57.10;;;;;;4888896;29;20510;-87
2021/05/23 00:12:31;;;;;;;14.95;13.38;;;22.20;57.50;;;;;;4857830;29;20138;-86
2021/05/23 00:14:58;;;;;;;14.63;13.13;;;22.10;57.70;;;;;;4874512;29;20606;-85
2021/05/23 00:17:24;;;;;;;;;;;22.00;57.90;;;;;;4873697;29;20040;-87
2021/05/23 00:19:50;;;;;;;;;;;21.90;58.10;;;;;;4889484;29;19926;-85
2021/05/23 00:22:17;;;;;;;19.30;15.35;;;21.90;58.10;;;;;;4872985;29;20035;-86
2021/05/23 00:24:43;;;;;;;17.33;15.63;;;21.90;58.10;;;;;;4857421;29;20079;-86
2021/05/23 00:27:09;;;;;;;16.88;14.57;;;21.80;58.60;;;;;;4889058;29;20102;-86
2021/05/23 00:29:36;;;;;;;17.35;14.13;;;21.70;58.80;;;;;;4889219;29;20032;-85
2021/05/23 00:32:03;;;;;;;17.20;14.32;;;21.70;59.30;;;;;;4889432;29;20052;-87
2021/05/23 00:34:29;;;;;;;16.55;14.38;;;21.60;59.60;;;;;;4890841;29;20036;-86
2021/05/23 00:36:56;;;;;;;18.08;14.23;;;21.60;59.90;;;;;;4859289;29;20139;-87
2021/05/23 00:39:22;;;;;;;17.85;14.25;;;21.50;60.20;;;;;;4888999;29;20130;-86
2021/05/23 00:41:48;;;;;;;17.90;14.13;;;21.50;60.50;;;;;;4844529;29;20547;-86
2021/05/23 00:44:14;;;;;;;19.00;14.55;;;21.40;60.70;;;;;;4888692;29;20066;-86
2021/05/23 00:46:41;;;;;;;17.42;14.07;;;21.40;60.80;;;;;;4843281;29;20123;-86
2021/05/23 00:49:07;;;;;;;17.15;14.32;;;21.40;60.90;;;;;;4855338;29;20050;-85
2021/05/23 00:51:34;;;;;;;20.15;15.10;;;21.40;61.10;;;;;;4840028;29;20051;-88
2021/05/23 00:54:00;;;;;;;21.23;14.57;;;21.40;61.30;;;;;;4840600;29;20131;-90
2021/05/23 00:56:26;;;;;;;20.15;14.73;;;21.40;61.40;;;;;;4825163;29;20051;-87
2021/05/23 00:58:53;;;;;;;15.90;14.27;;;21.30;61.50;;;;;;4856021;29;20664;-88
2021/05/23 01:02:08;;;;;;;15.88;14.18;;;21.30;61.60;;;;;;4844645;29;20055;-90
2021/05/23 01:04:35;;;;;;;16.92;13.70;;;21.30;61.60;;;;;;4817774;29;20068;-86
2021/05/23 01:07:01;;;;;;;15.18;13.15;;;21.40;61.60;;;;;;4857213;29;20087;-88
2021/05/23 01:09:27;;;;;;;15.52;13.27;;;21.40;61.60;;;;;;4871976;29;20055;-90
2021/05/23 01:15:11;;;;;;;16.10;13.75;;;21.50;61.50;;;;;;4354203;32;478242;-86
2021/05/23 01:17:45;;;;;;;16.30;13.32;;;21.60;61.20;;;;;;5095336;28;20035;-91
2021/05/23 01:20:45;;;;;;;13.82;12.35;;;21.60;61.20;;;;;;5092567;28;20052;-91
2021/05/23 01:23:31;;;;;;;17.95;12.98;;;21.60;61.20;;;;;;5046538;28;20059;-89
2021/05/23 01:26:06;;;;;;;15.40;12.48;;;21.60;61.20;;;;;;5079090;28;20509;-84
2021/05/23 01:28:44;;;;;;;18.15;12.88;;;21.70;61.20;;;;;;5063236;28;20035;-86
2021/05/23 01:31:14;;;;;;;15.27;12.70;;;21.70;61.10;;;;;;5057848;28;20048;-85
2021/05/23 01:33:41;;;;;;;14.07;12.70;;;21.80;61.00;;;;;;5010120;28;20109;-86
2021/05/23 01:36:07;;;;;;;17.05;12.18;;;21.80;60.90;;;;;;5025479;28;20052;-87
2021/05/23 01:38:34;;;;;;;14.52;12.45;;;21.90;60.60;;;;;;5027024;28;20054;-86
2021/05/23 01:41:05;;;;;;;15.20;11.88;;;22.00;60.40;;;;;;5009711;28;20042;-87
2021/05/23 01:43:32;;;;;;;16.05;11.77;;;22.10;60.30;;;;;;5027363;28;20129;-88
2021/05/23 01:45:59;;;;;;;12.93;11.60;;;22.10;61.20;;;;;;5025877;28;20032;-87
2021/05/23 01:48:25;;;;;;;13.18;11.73;;;22.20;59.90;;;;;;5010170;28;20078;-87
2021/05/23 01:50:51;;;;;;;;;;;22.20;59.80;;;;;;5026942;28;20055;-86
2021/05/23 01:53:18;;;;;;;15.82;11.48;;;22.20;59.70;;;;;;5043284;28;20418;-86
2021/05/23 01:55:44;;;;;;;12.13;10.90;;;22.30;59.50;;;;;;5027505;28;20039;-89
2021/05/23 01:58:11;;;;;;;13.68;10.23;;;22.30;60.60;;;;;;5027892;28;20515;-87
2021/05/23 02:00:40;;;;;;;15.70;10.93;;;22.30;59.40;;;;;;5028007;28;20114;-86
2021/05/23 02:03:09;;;;;;;14.90;10.90;;;22.40;59.30;;;;;;5011675;28;20048;-88
2021/05/23 02:05:38;;;;;;;13.48;10.15;;;22.50;59.20;;;;;;5011761;28;20028;-87
2021/05/23 02:08:05;;;;;;;11.52;9.77;;;22.60;59.10;;;;;;5026878;28;20044;-87
2021/05/23 02:10:31;;;;;;;11.13;9.63;;;22.70;58.80;;;;;;5061939;28;20042;-85
2021/05/23 02:13:02;;;;;;;10.52;9.45;;;22.90;58.50;;;;;;5060264;28;20089;-86
2021/05/23 02:15:29;;;;;;;11.90;9.68;;;23.00;58.20;;;;;;5061037;28;20044;-86
2021/05/23 02:17:55;;;;;;;10.82;9.55;;;23.10;58.10;;;;;;5060447;28;20047;-87
2021/05/23 02:20:28;;;;;;;9.20;8.18;;;23.30;57.70;;;;;;5011090;28;20040;-88
2021/05/23 02:22:56;;;;;;;12.18;8.00;;;23.40;57.30;;;;;;5009992;28;20066;-87
2021/05/23 02:25:23;;;;;;;10.05;8.30;;;23.60;56.80;;;;;;4988613;28;20127;-86
2021/05/23 02:27:52;;;;;;;11.18;8.27;;;23.70;55.90;;;;;;4996812;28;20036;-87
2021/05/23 02:30:27;;;;;;;10.70;8.45;;;23.80;55.20;;;;;;5029926;28;20040;-86
2021/05/23 02:32:54;;;;;;;9.77;8.20;;;23.80;54.80;;;;;;4998438;28;20037;-87
2021/05/23 02:35:23;;;;;;;9.60;8.27;;;23.80;54.60;;;;;;5013990;28;20075;-86
2021/05/23 02:37:49;;;;;;;8.55;7.72;;;23.70;54.50;;;;;;4983188;28;20503;-87
2021/05/23 02:40:18;;;;;;;13.88;8.20;;;23.60;54.50;;;;;;4997749;28;20029;-87
2021/05/23 02:42:45;;;;;;;11.30;6.97;;;23.60;54.50;;;;;;5013798;28;20181;-85
2021/05/23 02:45:12;;;;;;;;;;;23.60;54.50;;;;;;5039512;28;20040;-86
2021/05/23 02:47:39;;;;;;;13.15;7.93;;;23.60;54.70;;;;;;5039401;28;19935;-86
2021/05/23 02:50:08;;;;;;;9.77;6.97;;;23.60;54.50;;;;;;5046669;28;20045;-87
2021/05/23 02:52:35;;;;;;;9.45;7.18;;;23.60;54.20;;;;;;5047276;28;20115;-86
2021/05/23 02:55:01;;;;;;;9.13;7.00;;;23.70;54.00;;;;;;5046639;28;20050;-87
2021/05/23 02:57:27;;;;;;;;;;;23.60;53.90;;;;;;5013361;28;20044;-86
2021/05/23 02:59:53;;;;;;;;;;;23.60;54.20;;;;;;5012838;28;19940;-87
2021/05/23 03:02:20;;;;;;;8.65;6.55;;;23.60;54.20;;;;;;5013980;28;19928;-88
2021/05/23 03:04:46;;;;;;;8.43;6.25;;;23.70;54.00;;;;;;4982355;28;20039;-84
2021/05/23 03:07:12;;;;;;;13.60;6.63;;;23.80;53.80;;;;;;5011538;28;20069;-86
2021/05/23 03:09:39;;;;;;;13.82;6.53;;;23.90;53.70;;;;;;4992344;28;20028;-89
2021/05/23 03:12:05;;;;;;;;;;;24.10;53.50;;;;;;4988287;28;20036;-86
2021/05/23 03:14:32;;;;;;;9.93;6.18;;;24.30;52.90;;;;;;5016103;28;19936;-88
2021/05/23 03:16:58;;;;;;;8.13;6.22;;;24.50;52.10;;;;;;4997017;28;20051;-86
2021/05/23 03:19:24;;;;;;;7.28;5.65;;;24.70;51.60;;;;;;4982035;28;20480;-87
2021/05/23 03:21:51;;;;;;;13.18;5.60;;;24.80;51.30;;;;;;4982118;28;20119;-93
2021/05/23 03:24:17;;;;;;;;;;;25.00;50.80;;;;;;4981472;28;20032;-90
2021/05/23 03:26:43;;;;;;;8.13;5.40;;;25.30;50.20;;;;;;4996304;28;20402;-89
2021/05/23 03:29:10;;;;;;;;;;;25.40;49.10;;;;;;4996818;28;20032;-89
2021/05/23 03:31:36;;;;;;;12.68;5.25;;;25.40;48.90;;;;;;4996224;28;19932;-90
2021/05/23 03:34:02;;;;;;;6.90;5.47;;;25.50;48.70;;;;;;5047114;28;20040;-85
2021/05/23 03:36:29;;;;;;;10.23;5.18;;;25.50;48.50;;;;;;5045196;28;20094;-89
2021/05/23 03:38:55;;;;;;;;;;;25.60;48.20;;;;;;5047329;28;20028;-88
2021/05/23 03:41:22;;;;;;;9.10;5.32;;;25.70;47.80;;;;;;5058862;28;20429;-89
2021/05/23 03:43:48;;;;;;;8.95;5.10;;;25.80;48.60;;;;;;4997092;28;20040;-88
2021/05/23 03:46:14;;;;;;;;;;;25.80;46.80;;;;;;4997566;28;20047;-88
2021/05/23 03:48:40;;;;;;;7.20;5.00;;;25.90;47.20;;;;;;4979765;28;20022;-88
2021/05/23 03:51:07;;;;;;;;;;;25.90;46.60;;;;;;4979840;28;20051;-89
2021/05/23 03:53:33;;;;;;;9.55;4.53;;;26.10;46.70;;;;;;4996223;28;19924;-87
2021/05/23 03:56:00;;;;;;;9.00;5.10;;;26.10;46.20;;;;;;4963760;28;20043;-89
2021/05/23 03:58:26;;;;;;;14.07;5.53;;;26.30;45.70;;;;;;4979384;28;20522;-87
2021/05/23 04:00:52;;;;;;;8.15;4.93;;;26.50;45.20;;;;;;5028544;28;20036;-88
2021/05/23 04:03:21;;;;;;;;;;;26.60;44.40;;;;;;4995315;28;20036;-88
2021/05/23 04:05:48;;;;;;;11.73;5.07;;;26.70;44.30;;;;;;4983167;28;19928;-89
2021/05/23 04:08:14;;;;;;;10.25;5.32;;;26.80;43.80;;;;;;5047416;28;20036;-90
2021/05/23 04:10:46;;;;;;;;;;;26.90;43.50;;;;;;5047555;28;20028;-88
2021/05/23 04:13:13;;;;;;;11.25;5.05;;;27.10;43.90;;;;;;5046052;28;19928;-89
2021/05/23 04:15:39;;;;;;;9.10;4.80;;;27.40;42.80;;;;;;5046698;28;20073;-90
2021/05/23 04:18:06;;;;;;;8.95;4.53;;;27.70;42.00;;;;;;5045126;28;20110;-88
2021/05/23 04:20:32;;;;;;;;;;;27.90;42.70;;;;;;4979233;28;20037;-88
2021/05/23 04:22:58;;;;;;;12.80;4.45;;;28.00;41.10;;;;;;4994087;28;19928;-88
2021/05/23 04:25:25;;;;;;;;;;;28.10;40.70;;;;;;4979205;28;20457;-88
2021/05/23 04:27:51;;;;;;;9.52;4.07;;;28.10;40.30;;;;;;4998439;28;19928;-88
2021/05/23 04:30:20;;;;;;;11.70;4.45;;;28.20;40.30;;;;;;4983091;28;20099;-89
2021/05/23 04:32:47;;;;;;;9.82;4.03;;;28.30;39.90;;;;;;4994710;28;20202;-89
2021/05/23 04:35:16;;;;;;;11.25;4.47;;;28.40;39.70;;;;;;5027867;28;20032;-87
2021/05/23 04:37:46;;;;;;;12.82;4.45;;;28.60;39.40;;;;;;4996044;28;20042;-87
2021/05/23 04:40:13;;;;;;;9.00;4.40;;;28.80;39.10;;;;;;5010904;28;20107;-87
2021/05/23 04:42:39;;;;;;;10.98;4.03;;;29.10;38.60;;;;;;5043684;28;20098;-89
2021/05/23 04:45:06;;;;;;;9.40;4.13;;;29.50;37.90;;;;;;5045503;28;20414;-89
2021/05/23 04:47:35;;;;;;;10.95;4.00;;;30.00;37.00;;;;;;5013521;28;20040;-88
2021/05/23 04:50:06;;;;;;;10.32;3.95;;;30.60;35.80;;;;;;5047095;28;20036;-88
2021/05/23 04:52:33;;;;;;;10.82;3.83;;;31.30;34.00;;;;;;4965938;28;20502;-88
2021/05/23 04:54:59;;;;;;;7.68;3.40;;;31.80;32.80;;;;;;4988652;28;20044;-88
2021/05/23 04:57:26;;;;;;;9.70;3.70;;;32.40;31.50;;;;;;5006472;28;20040;-90
2021/05/23 04:59:53;;;;;;;8.98;3.42;;;33.10;30.10;;;;;;4989501;28;20063;-90
2021/05/23 05:02:19;;;;;;;11.30;3.40;;;33.70;28.80;;;;;;4987843;28;20107;-88
2021/05/23 05:04:46;;;;;;;11.90;3.05;;;34.40;27.60;;;;;;5025378;28;20436;-91
2021/05/23 05:07:12;;;;;;;10.77;3.47;;;35.40;26.50;;;;;;5025844;28;20514;-89
2021/05/23 05:09:39;;;;;;;7.88;2.95;;;36.30;24.30;;;;;;5027634;28;20032;-90
2021/05/23 05:12:06;;;;;;;8.25;3.42;;;36.90;23.60;;;;;;4978974;28;20036;-90
2021/05/23 05:14:33;;;;;;;7.47;3.25;;;36.90;22.90;;;;;;4988099;28;20082;-87
2021/05/23 05:16:59;;;;;;;8.88;3.10;;;36.50;22.60;;;;;;5023355;28;20048;-88
2021/05/23 05:19:26;;;;;;;10.90;3.10;;;36.20;23.50;;;;;;5000730;28;20140;-87
2021/05/23 05:21:52;;;;;;;8.57;3.05;;;36.30;23.20;;;;;;4970463;28;20075;-89
2021/05/23 05:24:19;;;;;;;14.55;3.80;;;36.40;22.60;;;;;;5003413;28;20084;-88
2021/05/23 05:26:45;;;;;;;10.18;3.10;;;37.00;22.80;;;;;;5014408;28;20033;-90
2021/05/23 05:29:11;;;;;;;7.63;3.33;;;37.80;22.00;;;;;;5002884;28;20033;-87
2021/05/23 05:31:38;;;;;;;11.25;3.70;;;38.20;21.30;;;;;;5015344;28;20495;-88
2021/05/23 05:34:04;;;;;;;8.38;3.15;;;38.60;20.90;;;;;;4999682;28;20052;-87
2021/05/23 05:36:30;;;;;;;10.07;2.95;;;38.80;20.00;;;;;;5013024;28;20037;-89
2021/05/23 05:38:57;;;;;;;8.73;3.45;;;38.80;19.70;;;;;;5003258;28;20123;-90
2021/05/23 05:41:23;;;;;;;11.88;3.58;;;38.60;19.30;;;;;;4980827;28;20037;-89
2021/05/23 05:43:50;;;;;;;9.02;2.90;;;38.90;19.20;;;;;;4998528;28;20017;-88
2021/05/23 05:46:16;;;;;;;8.40;3.00;;;39.80;18.10;;;;;;5016510;28;20029;-88
2021/05/23 05:48:43;;;;;;;12.63;3.10;;;40.30;17.70;;;;;;5038177;28;20104;-85
2021/05/23 05:51:09;;;;;;;14.55;3.00;;;40.50;17.10;;;;;;5035147;28;20107;-87
2021/05/23 05:53:35;;;;;;;10.23;3.10;;;41.10;16.50;;;;;;5034418;28;20033;-86
2021/05/23 05:56:03;;;;;;;11.60;3.00;;;42.00;15.80;;;;;;5012015;28;20075;-87
2021/05/23 05:58:30;;;;;;;6.63;2.50;;;42.90;14.90;;;;;;5013899;28;20048;-88
2021/05/23 06:00:56;;;;;;;9.65;2.25;;;43.70;14.00;;;;;;5017508;28;20037;-86
2021/05/23 06:03:22;;;;;;;9.07;2.78;;;44.40;13.00;;;;;;5003758;28;20094;-87
2021/05/23 06:05:48;;;;;;;9.68;2.95;;;44.90;12.00;;;;;;5037063;28;20117;-88
2021/05/23 06:08:18;;;;;;;12.25;2.70;;;45.40;11.50;;;;;;5016577;28;20033;-86
2021/05/23 06:10:44;;;;;;;5.95;2.10;;;45.60;11.90;;;;;;5033734;28;20029;-87
2021/05/23 06:13:11;;;;;;;6.90;2.63;;;45.70;11.00;;;;;;5017307;28;20028;-87
2021/05/23 06:15:37;;;;;;;8.27;3.00;;;45.50;11.10;;;;;;5010947;28;20045;-87
2021/05/23 06:18:04;;;;;;;10.98;2.70;;;45.40;11.30;;;;;;5015073;28;20104;-88
2021/05/23 06:20:30;;;;;;;7.68;3.13;;;45.00;11.30;;;;;;5014863;28;20074;-87
2021/05/23 06:22:56;;;;;;;5.70;2.88;;;44.70;11.70;;;;;;5014818;28;20436;-88
2021/05/23 06:25:23;;;;;;;9.23;3.15;;;44.20;11.70;;;;;;5015074;28;20074;-88
2021/05/23 06:27:49;;;;;;;9.15;2.95;;;43.60;12.50;;;;;;4980428;28;20037;-87
2021/05/23 06:30:17;;;;;;;6.80;2.50;;;43.60;12.80;;;;;;5013558;28;20029;-87
2021/05/23 06:32:44;;;;;;;10.35;2.72;;;44.10;12.30;;;;;;4984528;28;20056;-89
2021/05/23 06:35:14;;;;;;;5.47;2.38;;;44.50;11.80;;;;;;5002501;28;20041;-89
2021/05/23 06:37:40;;;;;;;11.98;2.88;;;45.20;11.10;;;;;;4950300;28;20392;-88
2021/05/23 06:40:08;;;;;;;16.55;2.70;;;45.10;10.70;;;;;;5015215;28;20530;-87
2021/05/23 06:42:34;;;;;;;5.20;2.50;;;44.30;11.40;;;;;;5011754;28;20090;-88
2021/05/23 06:45:00;;;;;;;6.72;2.90;;;43.10;12.20;;;;;;5009662;28;20061;-87
2021/05/23 06:47:26;;;;;;;7.85;2.80;;;42.10;13.20;;;;;;4979121;28;20022;-88
2021/05/23 06:49:53;;;;;;;8.77;3.10;;;41.50;14.10;;;;;;4997868;28;20033;-88
2021/05/23 06:52:19;;;;;;;9.23;3.08;;;41.40;14.10;;;;;;4973731;28;20048;-85
2021/05/23 06:54:46;;;;;;;9.57;2.65;;;41.60;13.90;;;;;;4998099;28;20048;-87
2021/05/23 06:57:12;;;;;;;9.93;2.38;;;41.50;13.40;;;;;;4995427;28;20037;-88
2021/05/23 06:59:38;;;;;;;12.50;2.63;;;41.10;13.50;;;;;;5003023;28;20072;-87
2021/05/23 07:02:05;;;;;;;6.00;2.40;;;41.50;14.10;;;;;;5019829;28;20041;-88
2021/05/23 07:04:31;;;;;;;15.68;2.88;;;42.70;12.80;;;;;;5021200;28;20041;-89
2021/05/23 07:06:58;;;;;;;13.57;2.95;;;43.50;11.70;;;;;;5002279;28;20065;-88
2021/05/23 07:09:24;;;;;;;11.35;2.70;;;44.20;10.80;;;;;;4987300;28;20121;-87
2021/05/23 07:11:50;;;;;;;6.93;2.63;;;44.30;10.40;;;;;;4970507;28;20094;-87
2021/05/23 07:14:17;;;;;;;9.68;2.42;;;44.50;10.20;;;;;;5009268;28;20067;-87
2021/05/23 07:16:44;;;;;;;9.45;3.00;;;44.90;10.00;;;;;;5008411;28;20127;-91
2021/05/23 07:19:10;;;;;;;18.05;3.42;;;44.50;10.20;;;;;;5022999;28;20041;-88
2021/05/23 07:21:36;;;;;;;10.90;2.58;;;44.10;10.60;;;;;;5026377;28;20056;-86
2021/05/23 07:24:03;;;;;;;18.27;3.22;;;44.10;10.60;;;;;;5002408;28;20033;-88
2021/05/23 07:26:30;;;;;;;10.32;2.97;;;44.60;10.30;;;;;;5040347;28;20052;-88
2021/05/23 07:28:56;;;;;;;12.35;3.05;;;45.10;10.10;;;;;;5038778;28;20094;-88
2021/05/23 07:31:23;;;;;;;18.10;3.10;;;45.40;9.90;;;;;;5034003;28;20396;-86
2021/05/23 07:33:49;;;;;;;9.65;2.90;;;45.70;10.20;;;;;;5032101;28;20043;-88
2021/05/23 07:36:15;;;;;;;16.95;3.38;;;46.20;9.80;;;;;;5032940;28;20150;-86
2021/05/23 07:38:42;;;;;;;11.55;3.42;;;46.60;9.70;;;;;;5033259;28;20573;-85
2021/05/23 07:41:08;;;;;;;11.23;3.78;;;47.00;9.30;;;;;;5018417;28;20036;-87
2021/05/23 07:43:35;;;;;;;15.02;3.35;;;47.40;9.10;;;;;;5014569;28;20123;-86
2021/05/23 07:46:01;;;;;;;20.85;4.00;;;47.70;9.30;;;;;;5017388;28;20029;-88
2021/05/23 07:48:27;;;;;;;20.17;3.40;;;48.40;8.70;;;;;;5034188;28;20041;-88
2021/05/23 07:50:54;;;;;;;13.73;3.85;;;48.80;8.30;;;;;;5019359;28;20033;-87
2021/05/23 07:53:20;;;;;;;13.98;3.65;;;49.10;8.20;;;;;;5023093;28;20062;-89
2021/05/23 07:55:47;;;;;;;11.63;3.33;;;49.00;8.20;;;;;;5020796;28;20040;-89
2021/05/23 07:58:13;;;;;;;15.25;3.20;;;48.70;8.30;;;;;;5035881;28;20044;-90
2021/05/23 08:00:40;;;;;;;13.20;3.38;;;48.70;8.50;;;;;;5022541;28;20031;-88
2021/05/23 08:03:06;;;;;;;14.18;3.28;;;49.00;8.10;;;;;;5033936;28;20123;-86
2021/05/23 08:05:32;;;;;;;14.35;3.40;;;49.30;8.10;;;;;;5000616;28;20040;-88
2021/05/23 08:07:59;;;;;;;13.50;3.00;;;49.70;7.80;;;;;;4999290;28;20047;-84
2021/05/23 08:10:25;;;;;;;12.55;3.58;;;50.30;7.40;;;;;;5030472;28;20033;-86
2021/05/23 08:12:52;;;;;;;17.67;3.60;;;50.60;7.00;;;;;;5035866;28;20033;-86
2021/05/23 08:15:18;;;;;;;14.93;3.55;;;50.90;6.60;;;;;;5046271;28;20036;-87
2021/05/23 08:17:46;;;;;;;12.60;3.75;;;51.00;6.70;;;;;;5031284;28;20056;-84
2021/05/23 08:20:14;;;;;;;20.50;3.78;;;51.10;6.50;;;;;;5013075;28;20036;-87
2021/05/23 08:22:41;;;;;;;16.52;3.70;;;50.90;6.60;;;;;;4980789;28;20049;-86
2021/05/23 08:25:08;;;;;;;18.05;3.95;;;51.00;6.20;;;;;;4994282;28;20048;-86
2021/05/23 08:27:34;;;;;;;16.77;3.33;;;50.60;6.20;;;;;;4982063;28;20033;-86
2021/05/23 08:30:01;;;;;;;8.27;3.17;;;50.10;7.10;;;;;;5018999;28;20039;-87
2021/05/23 08:32:27;;;;;;;9.40;3.00;;;49.50;6.30;;;;;;5033613;28;20033;-88
2021/05/23 08:34:53;;;;;;;18.65;3.53;;;48.80;6.90;;;;;;5033026;28;20052;-87
2021/05/23 08:37:20;;;;;;;16.50;3.28;;;48.00;7.50;;;;;;5016263;28;20392;-86
2021/05/23 08:39:47;;;;;;;14.05;3.20;;;47.50;8.10;;;;;;4981741;28;20055;-88
2021/05/23 08:42:14;;;;;;;12.70;2.80;;;47.30;8.20;;;;;;5003936;28;20040;-88
2021/05/23 08:44:41;;;;;;;12.25;3.15;;;47.10;8.40;;;;;;5007132;28;20045;-88
2021/05/23 08:47:08;;;;;;;8.98;2.78;;;46.80;8.90;;;;;;5024331;28;20172;-88
2021/05/23 08:49:34;;;;;;;10.32;3.25;;;46.60;9.20;;;;;;5005065;28;20040;-88
2021/05/23 08:52:01;;;;;;;10.18;3.22;;;46.60;9.30;;;;;;5023439;28;20056;-87
2021/05/23 08:54:29;;;;;;;13.98;4.80;;;46.20;9.40;;;;;;5043681;28;20036;-89
2021/05/23 08:56:55;;;;;;;11.80;3.20;;;45.70;9.60;;;;;;5040678;28;20044;-90
2021/05/23 08:59:22;;;;;;;12.90;3.25;;;45.20;10.20;;;;;;5034401;28;20116;-88
2021/05/23 09:01:48;;;;;;;8.77;3.20;;;45.00;10.30;;;;;;5038641;28;20523;-89
2021/05/23 09:04:17;;;;;;;11.82;3.20;;;44.70;10.40;;;;;;5022362;28;20045;-91
2021/05/23 09:06:44;;;;;;;12.25;3.53;;;44.40;10.50;;;;;;5003939;28;20111;-92
2021/05/23 09:09:15;;;;;;;8.07;3.33;;;43.90;11.20;;;;;;4984657;28;20028;-89
2021/05/23 09:11:53;;;;;;;6.00;3.28;;;43.40;11.70;;;;;;5019822;28;20037;-88
2021/05/23 09:14:36;;;;;;;11.88;3.88;;;42.50;11.90;;;;;;5003469;28;20052;-90
2021/05/23 09:17:06;;;;;;;6.63;2.83;;;41.50;12.80;;;;;;5016014;28;20071;-89
2021/05/23 09:19:40;;;;;;;5.82;2.85;;;40.90;13.70;;;;;;4982802;28;20044;-89
2021/05/23 09:22:10;;;;;;;9.02;3.17;;;40.60;13.60;;;;;;4981110;28;20531;-90
2021/05/23 09:27:32;;;;;;;12.02;3.17;;;40.60;13.50;;;;;;4395742;32;450726;-90
2021/05/23 09:32:44;;;;;;;11.90;3.38;;;40.60;13.40;;;;;;4411798;32;448663;-91
2021/05/23 09:35:11;;;;;;;12.60;3.50;;;40.90;13.50;;;;;;5074302;28;20034;-91
2021/05/23 09:37:38;;;;;;;11.25;3.42;;;40.90;13.50;;;;;;5058149;28;20050;-90
2021/05/23 09:40:27;;;;;;;5.03;3.08;;;40.90;13.80;;;;;;5094269;28;20039;-89
2021/05/23 09:42:55;;;;;;;12.10;3.22;;;41.70;13.90;;;;;;5090638;28;20038;-90
2021/05/23 09:45:23;;;;;;;7.82;3.30;;;43.00;12.70;;;;;;5073950;28;20027;-90
2021/05/23 09:47:52;;;;;;;7.65;3.55;;;44.20;11.70;;;;;;5091574;28;20031;-89
2021/05/23 09:50:32;;;;;;;11.13;3.17;;;45.10;11.00;;;;;;5073921;28;20035;-89
2021/05/23 09:52:59;;;;;;;10.30;3.80;;;44.80;9.70;;;;;;5092060;28;20079;-89
2021/05/23 09:55:25;;;;;;;8.10;3.55;;;43.80;10.50;;;;;;5056407;28;20039;-89
2021/05/23 09:57:52;;;;;;;8.82;3.67;;;42.70;11.20;;;;;;5124237;28;20031;-90
2021/05/23 10:00:19;;;;;;;7.05;3.50;;;41.60;12.30;;;;;;5122896;28;20110;-89
2021/05/23 10:03:03;;;;;;;16.17;3.90;;;40.60;13.30;;;;;;5123528;28;20035;-89
2021/05/23 10:05:30;;;;;;;7.97;3.67;;;39.80;13.90;;;;;;5114870;28;20043;-90
2021/05/23 10:07:56;;;;;;;8.60;3.80;;;39.40;14.50;;;;;;5068908;28;20121;-89
2021/05/23 10:10:22;;;;;;;8.65;3.58;;;39.20;14.90;;;;;;5039340;28;20509;-90
2021/05/23 10:12:49;;;;;;;8.60;4.45;;;39.00;14.50;;;;;;5035775;28;20035;-90
2021/05/23 10:15:15;;;;;;;5.25;3.50;;;38.80;14.70;;;;;;5034319;28;20038;-88
2021/05/23 10:17:42;;;;;;;8.75;3.20;;;38.80;15.00;;;;;;5050924;28;20107;-90
2021/05/23 10:20:10;;;;;;;15.55;4.50;;;38.80;14.70;;;;;;5051317;28;20047;-90
2021/05/23 10:22:38;;;;;;;7.13;3.50;;;38.70;14.40;;;;;;5052423;28;20040;-91
2021/05/23 10:25:09;;;;;;;7.90;3.45;;;38.50;14.30;;;;;;5057132;28;20107;-91
2021/05/23 10:27:41;;;;;;;5.55;3.45;;;38.30;14.60;;;;;;5036357;28;20054;-89
2021/05/23 10:30:08;;;;;;;6.28;2.70;;;38.20;14.70;;;;;;5052391;28;20046;-91
2021/05/23 10:32:37;;;;;;;5.40;3.00;;;38.20;14.80;;;;;;5104949;28;20532;-89
2021/05/23 10:35:22;;;;;;;5.85;2.78;;;38.20;14.70;;;;;;5117821;28;20094;-89
2021/05/23 10:37:50;;;;;;;8.88;3.20;;;38.20;14.70;;;;;;5140292;28;20058;-87
2021/05/23 10:40:28;;;;;;;10.88;3.80;;;38.30;14.80;;;;;;5118386;28;20413;-90
2021/05/23 10:42:59;;;;;;;5.68;3.10;;;38.50;14.80;;;;;;5069511;28;20042;-89
2021/05/23 10:45:39;;;;;;;8.48;2.90;;;38.60;14.50;;;;;;5052768;28;20046;-89
2021/05/23 10:48:18;;;;;;;15.52;3.33;;;38.60;14.10;;;;;;5074969;28;20042;-89
2021/05/23 10:50:47;;;;;;;8.80;3.05;;;38.60;14.00;;;;;;5043509;28;20035;-90
2021/05/23 10:53:13;;;;;;;7.10;2.90;;;38.70;14.20;;;;;;5058686;28;20136;-90
2021/05/23 10:55:56;;;;;;;11.20;2.88;;;38.90;14.20;;;;;;5040740;28;20122;-89
2021/05/23 10:58:25;;;;;;;7.43;2.90;;;39.20;13.80;;;;;;5025955;28;20035;-89
2021/05/23 11:00:55;;;;;;;8.57;3.15;;;39.30;13.60;;;;;;5058543;28;20035;-90
2021/05/23 11:03:24;;;;;;;8.43;2.83;;;39.30;13.30;;;;;;5042320;28;20425;-91
2021/05/23 11:06:04;;;;;;;9.63;2.80;;;39.30;13.30;;;;;;5058095;28;20087;-89
2021/05/23 11:08:35;;;;;;;10.10;2.70;;;39.00;13.10;;;;;;5076581;28;20035;-91
2021/05/23 11:11:01;;;;;;;7.90;2.70;;;38.80;13.50;;;;;;5056873;28;20117;-91
2021/05/23 11:13:33;;;;;;;8.63;3.08;;;38.80;13.80;;;;;;5056981;28;20130;-91
2021/05/23 11:16:18;;;;;;;9.65;2.80;;;38.70;14.00;;;;;;5073829;28;20072;-90
2021/05/23 11:18:45;;;;;;;11.43;3.72;;;38.60;13.90;;;;;;5052694;28;20032;-89
2021/05/23 11:21:13;;;;;;;12.95;3.40;;;38.30;14.20;;;;;;5073821;28;20035;-89
2021/05/23 11:26:23;;;;;;;11.43;5.05;;;38.00;14.70;;;;;;4412169;32;514461;-90
2021/05/23 11:28:58;;;;;;;8.05;2.67;;;37.80;14.90;;;;;;5113143;28;20091;-90
2021/05/23 11:31:32;;;;;;;10.93;3.20;;;37.80;15.30;;;;;;5092916;28;20035;-89
2021/05/23 11:33:59;;;;;;;6.85;2.92;;;37.70;15.30;;;;;;5089389;28;20042;-89
2021/05/23 11:36:31;;;;;;;10.88;2.75;;;37.70;15.20;;;;;;5072463;28;20521;-89
2021/05/23 11:38:59;;;;;;;8.85;2.70;;;37.60;15.00;;;;;;5071658;28;20046;-90
2021/05/23 11:41:45;;;;;;;9.95;2.85;;;37.50;15.30;;;;;;5064575;28;20080;-90
2021/05/23 11:44:13;;;;;;;8.77;3.00;;;37.40;15.30;;;;;;5089854;27;20041;-90
2021/05/23 11:46:44;;;;;;;11.95;3.55;;;37.40;15.40;;;;;;5107288;28;20061;-91
2021/05/23 11:49:21;;;;;;;9.43;3.30;;;37.40;15.40;;;;;;5071456;28;20420;-91
2021/05/23 11:51:48;;;;;;;10.27;3.08;;;37.30;16.10;;;;;;5105080;28;20580;-91
2021/05/23 11:54:14;;;;;;;5.32;2.60;;;37.20;15.40;;;;;;5070739;28;20096;-91
2021/05/23 11:56:41;;;;;;;13.35;3.35;;;37.20;15.70;;;;;;5084920;28;20030;-92
2021/05/23 11:59:08;;;;;;;12.80;4.70;;;37.10;15.80;;;;;;5085300;28;20100;-89
2021/05/23 12:01:39;;;;;;;12.68;4.38;;;37.10;16.30;;;;;;5102976;28;20039;-90
2021/05/23 12:09:25;;;;;;;13.68;3.65;;;37.20;16.30;;;;;;4410834;32;443418;-88
2021/05/23 12:11:55;;;;;;;13.32;4.20;;;37.30;15.80;;;;;;5105436;28;20107;-89
2021/05/23 12:14:33;;;;;;;10.75;3.30;;;37.40;15.70;;;;;;5090571;28;20030;-89
2021/05/23 12:17:07;;;;;;;8.38;3.15;;;37.40;15.80;;;;;;5113021;28;20034;-89
2021/05/23 12:19:48;;;;;;;9.80;3.70;;;37.50;15.90;;;;;;5114945;28;20031;-91
2021/05/23 12:22:35;;;;;;;13.90;3.78;;;37.50;16.00;;;;;;5089775;28;20076;-90
2021/05/23 12:25:04;;;;;;;15.90;3.85;;;37.60;15.70;;;;;;5089032;28;20049;-89
2021/05/23 12:27:46;;;;;;;17.88;3.90;;;37.60;15.80;;;;;;5106135;28;20050;-90
2021/05/23 12:30:17;;;;;;;10.40;3.50;;;37.60;15.80;;;;;;5087869;28;20038;-89
2021/05/23 12:32:51;;;;;;;12.35;3.78;;;37.60;15.80;;;;;;5052379;28;20095;-91
2021/05/23 12:35:34;;;;;;;10.32;3.38;;;37.60;16.10;;;;;;5084250;28;20531;-89
2021/05/23 12:38:06;;;;;;;14.63;3.50;;;37.60;15.60;;;;;;5053369;28;20039;-89
2021/05/23 12:48:32;;;;;;;15.07;3.70;;;37.60;15.40;;;;;;4411816;32;427826;-87
2021/05/23 12:51:21;;;;;;;15.77;4.22;;;37.70;15.10;;;;;;5121355;28;20068;-86
2021/05/23 12:53:53;;;;;;;14.07;4.00;;;37.70;15.40;;;;;;5070342;28;20071;-87
2021/05/23 12:56:28;;;;;;;11.65;3.63;;;37.80;15.60;;;;;;5070623;28;20034;-87
2021/05/23 12:58:56;;;;;;;14.52;4.07;;;37.80;15.60;;;;;;5069115;28;20535;-87
2021/05/23 13:01:25;;;;;;;16.13;4.20;;;37.80;15.90;;;;;;5102053;28;20042;-84
2021/05/23 13:03:56;;;;;;;19.95;5.90;;;37.80;16.20;;;;;;5070706;28;20038;-85
2021/05/23 13:06:24;;;;;;;15.18;4.35;;;37.80;16.50;;;;;;5055295;28;20050;-86
2021/05/23 13:09:01;;;;;;;15.98;4.05;;;37.70;16.80;;;;;;5094687;28;20031;-87
2021/05/23 13:11:27;;;;;;;13.02;4.22;;;37.70;16.40;;;;;;5039567;28;20042;-86
2021/05/23 13:13:54;;;;;;;16.67;4.78;;;37.60;16.40;;;;;;5101942;28;20058;-85
2021/05/23 13:16:20;;;;;;;10.52;4.10;;;37.50;16.30;;;;;;5120814;28;20540;-87